Time;durP1;ratioP1;P1;durP2;ratioP2;P2;SDS_P1;SDS_P2;PMS_P1;PMS_P2;Temp;Humidity;BMP_temperature;BMP_pressure;BME280_temperature;BME280_humidity;BME280_pressure;Samples;Min_cycle;Max_cycle;Signal;HPM_P1;HPM_P2
2023/09/26 00:00:58;;;;;;;6.95;2.10;;;12.10;99.90;;;;;;6141789;22;92481;-77
2023/09/26 00:03:23;;;;;;;3.25;1.60;;;12.10;99.90;;;;;;6166407;22;92425;-77
2023/09/26 00:05:49;;;;;;;2.67;1.75;;;12.00;99.90;;;;;;6142208;22;94091;-77
2023/09/26 00:08:15;;;;;;;4.70;2.42;;;12.00;99.90;;;;;;6165468;22;96051;-77
2023/09/26 00:10:41;;;;;;;4.60;2.53;;;12.00;99.90;;;;;;6165969;22;92895;-77
2023/09/26 00:13:06;;;;;;;4.45;2.10;;;12.00;99.90;;;;;;6142222;22;92730;-77
2023/09/26 00:15:33;;;;;;;4.25;1.90;;;12.00;99.90;;;;;;6142832;22;92828;-77
2023/09/26 00:17:59;;;;;;;3.78;2.30;;;12.00;99.90;;;;;;6142874;22;92824;-77
2023/09/26 00:20:27;;;;;;;4.07;2.25;;;11.90;99.90;;;;;;6151440;22;92794;-76
2023/09/26 00:22:56;;;;;;;3.95;2.15;;;11.90;99.90;;;;;;6141486;22;93665;-77
2023/09/26 00:25:23;;;;;;;3.70;2.28;;;11.90;99.90;;;;;;6142026;22;92861;-77
2023/09/26 00:27:49;;;;;;;10.73;2.45;;;11.80;99.90;;;;;;6142806;22;95302;-77
2023/09/26 00:30:15;;;;;;;6.13;2.83;;;11.80;99.90;;;;;;6143120;22;92516;-77
2023/09/26 00:32:41;;;;;;;4.70;2.90;;;11.80;99.90;;;;;;6167141;22;92608;-76
2023/09/26 00:35:13;;;;;;;6.40;2.67;;;11.80;99.90;;;;;;6143108;22;93325;-77
2023/09/26 00:37:52;;;;;;;6.63;2.63;;;11.70;99.90;;;;;;6141784;22;96175;-77
2023/09/26 00:40:22;;;;;;;5.45;3.28;;;11.70;99.90;;;;;;6142374;22;91928;-77
2023/09/26 00:42:48;;;;;;;7.60;3.28;;;11.70;99.90;;;;;;6139400;22;92836;-76
2023/09/26 00:45:14;;;;;;;7.25;2.78;;;11.70;99.90;;;;;;6138876;22;93751;-77
2023/09/26 00:47:43;;;;;;;7.43;2.63;;;11.70;99.90;;;;;;6140079;22;94332;-76
2023/09/26 00:50:12;;;;;;;8.60;3.22;;;11.60;99.90;;;;;;6140181;22;92761;-77
2023/09/26 00:52:44;;;;;;;6.93;3.08;;;11.60;99.90;;;;;;6139123;22;92767;-77
2023/09/26 00:55:10;;;;;;;6.65;3.28;;;11.60;99.90;;;;;;6138497;22;96637;-77
2023/09/26 00:57:37;;;;;;;8.20;2.97;;;11.60;99.90;;;;;;6139755;22;92786;-77
2023/09/26 01:00:04;;;;;;;5.10;2.70;;;11.60;99.90;;;;;;6162123;22;92612;-77
2023/09/26 01:02:31;;;;;;;6.28;3.30;;;11.50;99.90;;;;;;6167128;22;92961;-77
2023/09/26 01:04:56;;;;;;;4.05;2.45;;;11.50;99.90;;;;;;6170309;22;91963;-77
2023/09/26 01:07:23;;;;;;;5.57;3.35;;;11.50;99.90;;;;;;6169373;22;92281;-77
2023/09/26 01:09:55;;;;;;;7.05;3.90;;;11.50;99.90;;;;;;6171113;22;92610;-77
2023/09/26 01:12:21;;;;;;;11.35;3.60;;;11.50;99.90;;;;;;6170399;22;93802;-77
2023/09/26 01:14:46;;;;;;;7.40;3.63;;;11.50;99.90;;;;;;6168919;22;96921;-77
2023/09/26 01:17:13;;;;;;;6.72;3.42;;;11.50;99.90;;;;;;6169566;22;93856;-77
2023/09/26 01:19:38;;;;;;;6.50;3.67;;;11.50;99.90;;;;;;6169697;22;93102;-77
2023/09/26 01:22:04;;;;;;;9.43;3.72;;;11.40;99.90;;;;;;6170793;22;92467;-77
2023/09/26 01:24:37;;;;;;;6.82;3.45;;;11.40;99.90;;;;;;6160560;22;95671;-77
2023/09/26 01:27:03;;;;;;;7.03;3.55;;;11.40;99.90;;;;;;6167657;22;94585;-76
2023/09/26 01:29:29;;;;;;;8.93;3.08;;;11.40;99.90;;;;;;6168507;22;91897;-78
2023/09/26 01:31:55;;;;;;;5.63;3.15;;;11.40;99.90;;;;;;6168834;22;92529;-77
2023/09/26 01:34:20;;;;;;;4.95;2.95;;;11.30;99.90;;;;;;6170421;22;93170;-77
2023/09/26 01:36:46;;;;;;;8.25;3.28;;;11.30;99.90;;;;;;6170913;22;93440;-77
2023/09/26 01:39:12;;;;;;;8.82;3.33;;;11.30;99.90;;;;;;6171152;22;92866;-77
2023/09/26 01:41:38;;;;;;;6.32;3.28;;;11.30;99.90;;;;;;6170029;22;93059;-78
2023/09/26 01:44:05;;;;;;;5.40;3.25;;;11.30;99.90;;;;;;6170809;22;92697;-77
2023/09/26 01:46:31;;;;;;;10.32;3.40;;;11.30;99.90;;;;;;6170152;22;94497;-77
2023/09/26 01:48:56;;;;;;;7.38;3.58;;;11.30;99.90;;;;;;6173434;22;92788;-77
2023/09/26 01:51:24;;;;;;;8.63;3.80;;;11.20;99.90;;;;;;6173123;22;92564;-76
2023/09/26 01:53:50;;;;;;;10.50;3.65;;;11.20;99.90;;;;;;6173181;22;93691;-77
2023/09/26 01:56:16;;;;;;;7.05;3.90;;;11.20;99.90;;;;;;6172492;22;92686;-77
2023/09/26 01:58:41;;;;;;;7.50;4.40;;;11.20;99.90;;;;;;6173922;22;92492;-77
2023/09/26 02:01:07;;;;;;;6.50;3.97;;;11.20;99.90;;;;;;6172863;22;93764;-77
2023/09/26 02:03:33;;;;;;;9.30;4.45;;;11.20;99.90;;;;;;6173180;22;93954;-77
2023/09/26 02:05:59;;;;;;;8.68;3.80;;;11.20;99.90;;;;;;6171052;22;94454;-76
2023/09/26 02:08:25;;;;;;;6.40;3.35;;;11.20;99.90;;;;;;6171728;22;92396;-77
2023/09/26 02:10:51;;;;;;;8.35;3.85;;;11.20;99.90;;;;;;6169827;22;92724;-77
2023/09/26 02:13:16;;;;;;;12.27;4.80;;;11.20;99.90;;;;;;6171734;22;93144;-77
2023/09/26 02:15:42;;;;;;;5.90;3.58;;;11.20;99.90;;;;;;6173323;22;93007;-77
2023/09/26 02:18:07;;;;;;;7.15;4.43;;;11.20;99.90;;;;;;6174376;22;92296;-77
2023/09/26 02:20:33;;;;;;;7.90;3.75;;;11.20;99.90;;;;;;6173553;22;92840;-77
2023/09/26 02:22:59;;;;;;;8.30;3.92;;;11.10;99.90;;;;;;6172646;22;96598;-77
2023/09/26 02:25:25;;;;;;;12.90;4.10;;;11.10;99.90;;;;;;6171278;22;96449;-76
2023/09/26 02:27:51;;;;;;;5.88;3.28;;;11.10;99.90;;;;;;6174308;22;92631;-77
2023/09/26 02:30:19;;;;;;;7.03;5.10;;;11.10;99.90;;;;;;6173480;22;92546;-76
2023/09/26 02:32:45;;;;;;;6.40;3.78;;;11.10;99.90;;;;;;6173217;22;96418;-77
2023/09/26 02:35:15;;;;;;;14.20;5.25;;;11.10;99.90;;;;;;6174277;22;92478;-76
2023/09/26 02:37:42;;;;;;;8.88;3.80;;;11.10;99.90;;;;;;6173532;22;93228;-77
2023/09/26 02:40:11;;;;;;;6.95;3.90;;;11.10;99.90;;;;;;6175260;22;92416;-77
2023/09/26 02:42:43;;;;;;;5.72;3.88;;;11.10;99.90;;;;;;6173209;22;100170;-77
2023/09/26 02:45:09;;;;;;;8.00;3.67;;;11.10;99.90;;;;;;6174208;22;92477;-76
2023/09/26 02:47:34;;;;;;;10.02;3.83;;;11.00;99.90;;;;;;6174798;22;92844;-77
2023/09/26 02:50:00;;;;;;;10.30;4.68;;;11.00;99.90;;;;;;6171298;22;93407;-77
2023/09/26 02:52:26;;;;;;;7.70;4.10;;;11.00;99.90;;;;;;6171889;22;94951;-76
2023/09/26 02:54:52;;;;;;;7.78;3.70;;;11.00;99.90;;;;;;6172558;22;94084;-77
2023/09/26 02:57:19;;;;;;;8.05;3.70;;;11.00;99.90;;;;;;6173241;22;92707;-77
2023/09/26 02:59:44;;;;;;;6.18;3.53;;;11.00;99.90;;;;;;6172731;22;92692;-77
2023/09/26 03:02:10;;;;;;;9.45;4.00;;;11.00;99.90;;;;;;6173966;22;93504;-77
2023/09/26 03:04:36;;;;;;;5.55;3.90;;;10.90;99.90;;;;;;6173606;22;94465;-77
2023/09/26 03:07:01;;;;;;;8.77;3.80;;;10.90;99.90;;;;;;6175835;22;91507;-77
2023/09/26 03:09:28;;;;;;;8.63;4.32;;;10.90;99.90;;;;;;6174003;22;92540;-76
2023/09/26 03:11:53;;;;;;;7.78;3.47;;;10.90;99.90;;;;;;6174024;22;95286;-77
2023/09/26 03:14:20;;;;;;;9.38;4.03;;;10.80;99.90;;;;;;6173570;22;93751;-77
2023/09/26 03:16:45;;;;;;;4.63;3.22;;;10.90;99.90;;;;;;6174144;22;92474;-76
2023/09/26 03:19:11;;;;;;;8.13;3.60;;;10.80;99.90;;;;;;6172613;22;92728;-76
2023/09/26 03:21:37;;;;;;;6.50;3.83;;;10.90;99.90;;;;;;6173200;22;96480;-77
2023/09/26 03:24:03;;;;;;;8.13;3.58;;;10.90;99.90;;;;;;6173883;22;93217;-77
2023/09/26 03:26:29;;;;;;;8.65;3.63;;;10.90;99.90;;;;;;6172220;22;92616;-77
2023/09/26 03:28:55;;;;;;;11.18;3.95;;;10.80;99.90;;;;;;6174056;22;92579;-78
2023/09/26 03:31:20;;;;;;;7.20;3.63;;;10.90;99.90;;;;;;6174314;22;93207;-77
2023/09/26 03:33:48;;;;;;;5.80;3.40;;;10.80;99.90;;;;;;6173715;22;93023;-77
2023/09/26 03:36:13;;;;;;;7.07;3.80;;;10.80;99.90;;;;;;6171351;22;92807;-76
2023/09/26 03:38:39;;;;;;;8.65;3.85;;;10.80;99.90;;;;;;6197652;22;93448;-76
2023/09/26 03:41:05;;;;;;;7.15;3.47;;;10.80;99.90;;;;;;6174233;22;93077;-76
2023/09/26 03:43:31;;;;;;;6.55;3.20;;;10.80;99.90;;;;;;6173985;22;93457;-76
2023/09/26 03:46:05;;;;;;;6.38;3.78;;;10.80;99.90;;;;;;6175835;22;92539;-76
2023/09/26 03:48:31;;;;;;;10.15;4.15;;;10.80;99.90;;;;;;6174314;22;92659;-77
2023/09/26 03:51:11;;;;;;;8.45;3.63;;;10.80;99.90;;;;;;6171471;22;96860;-76
2023/09/26 03:53:37;;;;;;;7.15;3.45;;;10.80;99.90;;;;;;6172068;22;96812;-76
2023/09/26 03:56:03;;;;;;;9.85;3.63;;;10.80;99.90;;;;;;6175688;22;92091;-77
2023/09/26 03:58:31;;;;;;;12.25;4.18;;;10.70;99.90;;;;;;6174529;22;92142;-77
2023/09/26 04:01:16;;;;;;;10.25;3.72;;;10.70;99.90;;;;;;6174091;22;96688;-76
2023/09/26 04:03:51;;;;;;;10.07;4.00;;;10.70;99.90;;;;;;6172471;22;93442;-76
2023/09/26 04:06:17;;;;;;;7.45;4.05;;;10.70;99.90;;;;;;6175103;22;92575;-76
2023/09/26 04:08:43;;;;;;;7.65;3.47;;;10.70;99.90;;;;;;6174497;22;92557;-76
2023/09/26 04:11:16;;;;;;;6.53;3.33;;;10.70;99.90;;;;;;6174342;22;93549;-77
2023/09/26 04:13:42;;;;;;;8.43;4.10;;;10.70;99.90;;;;;;6171174;22;96352;-76
2023/09/26 04:16:09;;;;;;;9.65;4.30;;;10.70;99.90;;;;;;6174780;22;92627;-76
2023/09/26 04:18:35;;;;;;;7.88;3.92;;;10.70;99.90;;;;;;6173154;22;92625;-77
2023/09/26 04:21:06;;;;;;;6.97;3.80;;;10.60;99.90;;;;;;6174469;22;92196;-76
2023/09/26 04:23:31;;;;;;;11.45;3.67;;;10.60;99.90;;;;;;6171684;22;95607;-76
2023/09/26 04:25:57;;;;;;;13.02;3.97;;;10.60;99.90;;;;;;6174707;22;92925;-77
2023/09/26 04:28:23;;;;;;;12.80;4.60;;;10.60;99.90;;;;;;6173970;22;93640;-76
2023/09/26 04:30:49;;;;;;;5.82;4.10;;;10.60;99.90;;;;;;6173372;22;95862;-77
2023/09/26 04:33:18;;;;;;;7.78;4.25;;;10.60;99.90;;;;;;6172497;22;94541;-77
2023/09/26 04:35:43;;;;;;;6.25;4.13;;;10.60;99.90;;;;;;6175315;22;92498;-77
2023/09/26 04:38:09;;;;;;;8.57;4.38;;;10.60;99.90;;;;;;6173362;22;93065;-77
2023/09/26 04:40:35;;;;;;;6.82;3.78;;;10.60;99.90;;;;;;6172230;22;95116;-77
2023/09/26 04:43:03;;;;;;;9.82;3.97;;;10.60;99.90;;;;;;6174529;22;92548;-77
2023/09/26 04:45:33;;;;;;;8.73;4.38;;;10.60;99.90;;;;;;6173733;22;91613;-77
2023/09/26 04:48:01;;;;;;;8.13;3.95;;;10.60;99.90;;;;;;6174560;22;92406;-76
2023/09/26 04:50:28;;;;;;;10.65;4.00;;;10.60;99.90;;;;;;6173960;22;92756;-77
2023/09/26 04:52:55;;;;;;;13.07;3.95;;;10.50;99.90;;;;;;6173361;22;93976;-76
2023/09/26 04:55:21;;;;;;;9.23;4.18;;;10.50;99.90;;;;;;6172178;22;92761;-77
2023/09/26 04:57:47;;;;;;;8.07;3.88;;;10.50;99.90;;;;;;6172778;22;93107;-77
2023/09/26 05:00:17;;;;;;;7.28;4.20;;;10.50;99.90;;;;;;6173240;22;93493;-77
2023/09/26 05:02:43;;;;;;;9.30;4.55;;;10.50;99.90;;;;;;6174036;22;93323;-77
2023/09/26 05:05:10;;;;;;;7.20;3.83;;;10.50;99.90;;;;;;6172226;22;92578;-77
2023/09/26 05:07:36;;;;;;;11.48;4.72;;;10.50;99.90;;;;;;6172633;22;92747;-77
2023/09/26 05:10:03;;;;;;;6.90;4.03;;;10.50;99.90;;;;;;6174394;22;95597;-77
2023/09/26 05:12:29;;;;;;;9.48;4.65;;;10.50;99.90;;;;;;6173879;22;92535;-78
2023/09/26 05:14:55;;;;;;;13.23;5.15;;;10.50;99.90;;;;;;6174235;22;92731;-77
2023/09/26 05:17:24;;;;;;;11.93;5.50;;;10.60;99.90;;;;;;6172160;22;93514;-77
2023/09/26 05:19:50;;;;;;;6.93;3.97;;;10.60;99.90;;;;;;6173001;22;93557;-77
2023/09/26 05:22:17;;;;;;;10.23;4.78;;;10.60;99.90;;;;;;6174016;22;93366;-77
2023/09/26 05:24:45;;;;;;;11.77;4.75;;;10.60;99.90;;;;;;6176293;22;92686;-77
2023/09/26 05:27:11;;;;;;;7.90;4.28;;;10.60;99.90;;;;;;6175210;22;92637;-77
2023/09/26 05:29:36;;;;;;;7.38;4.35;;;10.60;99.90;;;;;;6175363;22;93938;-77
2023/09/26 05:32:02;;;;;;;9.27;4.20;;;10.60;99.90;;;;;;6173588;22;96577;-77
2023/09/26 05:34:28;;;;;;;5.70;4.22;;;10.60;99.90;;;;;;6175712;22;91974;-77
2023/09/26 05:36:53;;;;;;;13.07;5.30;;;10.60;99.90;;;;;;6175562;22;92369;-76
2023/09/26 05:39:20;;;;;;;9.48;4.88;;;10.60;99.90;;;;;;6172505;22;96115;-78
2023/09/26 05:41:46;;;;;;;9.10;4.32;;;10.60;99.90;;;;;;6173562;22;93625;-77
2023/09/26 05:44:12;;;;;;;8.55;4.53;;;10.60;99.90;;;;;;6173750;22;92955;-77
2023/09/26 05:46:37;;;;;;;7.82;4.35;;;10.60;99.90;;;;;;6174937;22;92466;-77
2023/09/26 05:49:03;;;;;;;12.20;5.05;;;10.60;99.90;;;;;;6176347;22;93612;-76
2023/09/26 05:51:29;;;;;;;14.90;4.45;;;10.60;99.90;;;;;;6176069;22;92448;-77
2023/09/26 05:53:54;;;;;;;13.50;5.32;;;10.60;99.90;;;;;;6175264;22;92648;-77
2023/09/26 05:56:20;;;;;;;9.98;4.80;;;10.70;99.90;;;;;;6173456;22;92210;-77
2023/09/26 05:58:47;;;;;;;13.13;5.03;;;10.70;99.90;;;;;;6176139;22;91938;-77
2023/09/26 06:01:13;;;;;;;12.13;5.13;;;10.70;99.90;;;;;;6165125;22;92675;-76
2023/09/26 06:03:39;;;;;;;9.57;5.18;;;10.80;99.90;;;;;;6173902;22;92523;-77
2023/09/26 06:06:05;;;;;;;11.77;5.03;;;10.80;99.90;;;;;;6171113;22;93869;-77
2023/09/26 06:08:33;;;;;;;11.02;5.00;;;10.90;99.90;;;;;;6172407;22;95648;-77
2023/09/26 06:11:00;;;;;;;10.80;4.88;;;10.90;99.90;;;;;;6172081;22;96792;-77
2023/09/26 06:13:26;;;;;;;19.92;5.80;;;11.00;99.90;;;;;;6170946;22;92957;-76
2023/09/26 06:15:51;;;;;;;15.65;6.03;;;11.00;99.90;;;;;;6172716;22;92675;-77
2023/09/26 06:18:17;;;;;;;9.63;5.15;;;11.10;99.90;;;;;;6170250;22;94956;-77
2023/09/26 06:20:44;;;;;;;15.05;6.45;;;11.20;99.90;;;;;;6173421;22;92567;-77
2023/09/26 06:23:17;;;;;;;13.52;5.95;;;11.20;99.90;;;;;;6173957;22;92448;-78
2023/09/26 06:25:43;;;;;;;;;;;11.30;99.90;;;;;;6176113;22;93107;-77
2023/09/26 06:28:09;;;;;;;11.63;5.97;;;11.40;99.90;;;;;;6206940;22;95036;-78
2023/09/26 06:30:34;;;;;;;13.35;6.20;;;11.50;99.90;;;;;;6179191;22;94387;-77
2023/09/26 06:33:00;;;;;;;12.40;5.20;;;11.60;99.90;;;;;;6176015;22;92438;-78
2023/09/26 06:35:25;;;;;;;14.55;5.22;;;11.70;99.90;;;;;;6177667;22;92668;-79
2023/09/26 06:37:51;;;;;;;11.40;5.50;;;11.90;99.90;;;;;;6149662;22;96566;-77
2023/09/26 06:40:17;;;;;;;11.02;5.20;;;12.00;99.90;;;;;;6158010;22;93286;-79
2023/09/26 06:43:09;;;;;;;9.90;4.50;;;12.10;99.90;;;;;;6159459;22;91953;-79
2023/09/26 06:46:02;;;;;;;7.65;4.07;;;12.20;99.90;;;;;;6210272;22;92415;-77
2023/09/26 06:48:27;;;;;;;8.90;4.53;;;12.40;99.90;;;;;;6184479;22;92717;-77
2023/09/26 06:50:53;;;;;;;10.07;4.53;;;12.60;99.90;;;;;;6179932;22;94610;-78
2023/09/26 06:53:19;;;;;;;15.15;4.38;;;12.70;99.90;;;;;;6180627;22;92744;-79
2023/09/26 06:56:15;;;;;;;23.25;5.80;;;12.90;99.90;;;;;;6185719;22;93062;-78
2023/09/26 06:58:41;;;;;;;27.05;4.47;;;13.00;99.90;;;;;;6186981;22;93301;-79
2023/09/26 07:01:14;;;;;;;28.52;5.93;;;13.20;99.90;;;;;;6184442;22;93499;-78
2023/09/26 07:03:40;;;;;;;18.88;5.50;;;13.40;99.90;;;;;;6181060;22;92113;-78
2023/09/26 07:06:13;;;;;;;23.10;5.30;;;13.60;99.90;;;;;;6179894;22;92416;-78
2023/09/26 07:08:40;;;;;;;22.45;5.32;;;13.70;99.90;;;;;;6179312;22;93901;-78
2023/09/26 07:11:07;;;;;;;14.65;4.38;;;13.90;99.90;;;;;;6181141;22;96688;-79
2023/09/26 07:13:54;;;;;;;13.80;4.07;;;14.00;99.90;;;;;;6184755;22;91513;-78
2023/09/26 07:16:20;;;;;;;12.73;4.45;;;14.20;99.90;;;;;;6182639;22;92185;-78
2023/09/26 07:18:53;;;;;;;17.00;4.53;;;14.30;99.90;;;;;;6183830;22;93059;-78
2023/09/26 07:21:18;;;;;;;13.93;4.23;;;14.50;99.90;;;;;;6181899;22;93256;-78
2023/09/26 07:23:45;;;;;;;12.68;4.20;;;14.60;99.90;;;;;;6185160;22;92166;-79
2023/09/26 07:26:14;;;;;;;6.78;3.92;;;14.70;99.90;;;;;;6179774;22;92416;-78
2023/09/26 07:28:48;;;;;;;4.63;3.50;;;14.80;99.90;;;;;;6161112;22;93204;-79
2023/09/26 07:31:26;;;;;;;7.85;3.70;;;14.90;99.90;;;;;;6186796;22;92804;-78
2023/09/26 07:33:52;;;;;;;5.05;3.10;;;15.00;99.90;;;;;;6190109;22;92129;-78
2023/09/26 07:39:53;;;;;;;8.43;3.15;;;15.20;99.90;;;;;;6190303;22;91440;-79
2023/09/26 07:42:19;;;;;;;9.93;3.45;;;15.40;99.90;;;;;;6188653;22;92192;-79
2023/09/26 07:45:07;;;;;;;6.80;3.42;;;15.50;99.90;;;;;;6188018;22;91947;-80
2023/09/26 07:47:36;;;;;;;4.53;3.53;;;15.60;99.90;;;;;;6189375;22;92955;-79
2023/09/26 07:50:50;;;;;;;9.80;3.78;;;15.70;99.90;;;;;;6186606;22;95694;-80
2023/09/26 07:53:15;;;;;;;5.40;3.53;;;15.90;99.90;;;;;;6186108;22;92874;-79
2023/09/26 07:55:41;;;;;;;9.23;3.85;;;16.00;99.90;;;;;;6186624;22;92036;-79
2023/09/26 07:58:33;;;;;;;10.23;3.45;;;16.10;99.90;;;;;;6187685;22;92112;-79
2023/09/26 08:01:00;;;;;;;11.55;4.10;;;16.30;99.90;;;;;;6156514;22;100954;-81
2023/09/26 08:03:27;;;;;;;9.75;3.33;;;16.40;99.90;;;;;;6159035;22;92671;-78
2023/09/26 08:06:04;;;;;;;8.35;3.50;;;16.50;99.90;;;;;;6156924;22;91893;-79
2023/09/26 08:08:30;;;;;;;7.03;3.20;;;16.60;99.90;;;;;;6155011;22;92441;-79
2023/09/26 08:10:56;;;;;;;9.48;2.80;;;16.70;98.90;;;;;;6155247;22;92944;-79
2023/09/26 08:13:39;;;;;;;7.25;3.17;;;16.90;99.70;;;;;;6156639;22;93058;-80
2023/09/26 08:16:11;;;;;;;5.80;2.88;;;17.00;99.10;;;;;;6160370;22;92037;-81
2023/09/26 08:18:36;;;;;;;5.03;2.63;;;17.20;99.30;;;;;;6200379;22;93420;-80
2023/09/26 08:21:16;;;;;;;5.55;3.17;;;17.30;98.40;;;;;;6187633;22;92513;-80
2023/09/26 08:23:41;;;;;;;4.43;2.65;;;17.40;98.50;;;;;;6188704;22;92364;-78
2023/09/26 08:26:35;;;;;;;5.90;3.42;;;17.50;98.30;;;;;;6181525;22;92585;-79
2023/09/26 08:29:00;;;;;;;4.57;2.38;;;17.60;97.60;;;;;;6189233;22;92392;-80
2023/09/26 08:34:59;;;;;;;7.63;3.25;;;17.90;97.70;;;;;;6200235;22;91977;-82
2023/09/26 08:40:51;;;;;;;6.60;3.22;;;18.30;97.10;;;;;;6211698;22;92834;-81
2023/09/26 08:43:23;;;;;;;6.50;2.88;;;18.40;96.90;;;;;;6209633;22;93050;-83
2023/09/26 08:53:30;;;;;;;4.88;2.33;;;18.80;95.00;;;;;;6206901;22;91892;-83
2023/09/26 09:06:40;;;;;;;6.13;2.28;;;19.40;93.30;;;;;;6214245;22;91912;-83
2023/09/26 09:48:44;;;;;;;4.00;1.60;;;22.20;86.00;;;;;;6192908;22;121485;-83
2023/09/26 09:51:21;;;;;;;4.93;1.23;;;22.40;84.30;;;;;;6196370;22;92178;-82
2023/09/26 09:53:53;;;;;;;1.85;1.13;;;22.60;83.20;;;;;;6179094;22;92435;-78
2023/09/26 09:56:21;;;;;;;4.73;1.90;;;22.70;80.30;;;;;;6171504;22;92800;-78
2023/09/26 09:58:56;;;;;;;3.08;1.55;;;22.90;78.20;;;;;;6169786;22;96251;-78
2023/09/26 10:01:23;;;;;;;2.65;1.60;;;23.00;78.00;;;;;;6174375;22;92599;-78
2023/09/26 10:03:51;;;;;;;2.13;1.30;;;23.10;80.00;;;;;;6171893;22;92614;-80
2023/09/26 10:06:18;;;;;;;2.28;1.42;;;23.20;77.90;;;;;;6183739;22;93261;-78
2023/09/26 10:08:47;;;;;;;7.32;2.50;;;23.40;79.70;;;;;;6170632;22;93719;-79
2023/09/26 10:11:13;;;;;;;2.63;1.17;;;23.50;78.00;;;;;;6169670;22;92799;-77
2023/09/26 10:13:40;;;;;;;2.58;1.42;;;23.50;75.20;;;;;;6169473;22;92928;-78
2023/09/26 10:16:18;;;;;;;3.35;1.45;;;23.70;73.70;;;;;;6171192;22;92803;-77
2023/09/26 10:18:45;;;;;;;2.67;1.20;;;23.80;75.80;;;;;;6169704;22;97859;-77
2023/09/26 10:21:25;;;;;;;2.15;1.58;;;23.90;70.40;;;;;;6170567;22;92874;-78
2023/09/26 10:24:09;;;;;;;3.25;1.40;;;23.90;71.70;;;;;;6162696;22;98760;-78
2023/09/26 10:26:40;;;;;;;3.58;1.33;;;23.90;71.00;;;;;;6157073;22;93331;-78
2023/09/26 10:29:12;;;;;;;4.50;1.67;;;24.00;71.10;;;;;;6157489;22;94631;-79
2023/09/26 10:31:57;;;;;;;3.58;1.35;;;23.90;72.30;;;;;;6181877;22;92645;-77
2023/09/26 10:34:31;;;;;;;1.95;1.30;;;23.90;71.90;;;;;;6167239;22;93601;-77
2023/09/26 10:36:58;;;;;;;2.33;1.33;;;23.90;72.60;;;;;;6168763;22;96096;-76
2023/09/26 10:39:44;;;;;;;5.65;1.60;;;24.00;70.70;;;;;;6167433;22;96339;-79
2023/09/26 10:42:13;;;;;;;3.13;1.35;;;24.00;69.10;;;;;;6171963;22;92610;-78
2023/09/26 10:44:40;;;;;;;4.00;2.00;;;24.10;72.00;;;;;;6164028;22;92469;-77
2023/09/26 10:47:07;;;;;;;6.53;1.50;;;24.20;75.00;;;;;;6150620;22;92741;-78
2023/09/26 10:49:33;;;;;;;4.45;1.30;;;24.40;73.20;;;;;;6167192;22;92629;-78
2023/09/26 10:52:01;;;;;;;4.70;1.83;;;24.40;72.40;;;;;;6170402;22;91717;-76
2023/09/26 10:54:29;;;;;;;2.70;1.40;;;24.40;72.10;;;;;;6163759;22;93031;-76
2023/09/26 10:56:58;;;;;;;3.65;1.42;;;24.50;70.50;;;;;;6136915;22;95878;-78
2023/09/26 10:59:28;;;;;;;2.83;1.70;;;24.70;70.90;;;;;;6136871;22;96344;-79
2023/09/26 11:01:58;;;;;;;3.08;1.63;;;24.80;71.50;;;;;;6138457;22;92644;-78
2023/09/26 11:04:31;;;;;;;6.53;1.58;;;24.90;70.20;;;;;;6136791;22;92631;-76
2023/09/26 11:07:05;;;;;;;5.88;1.50;;;25.10;69.60;;;;;;6136508;22;97111;-77
2023/09/26 11:09:40;;;;;;;3.28;1.83;;;25.10;66.80;;;;;;6136753;22;93446;-76
2023/09/26 11:12:06;;;;;;;3.65;1.50;;;25.20;68.90;;;;;;6136168;22;92857;-79
2023/09/26 11:14:32;;;;;;;5.30;1.88;;;25.10;68.40;;;;;;6136370;22;92845;-78
2023/09/26 11:17:01;;;;;;;6.70;1.73;;;25.10;71.10;;;;;;6137829;22;93534;-77
2023/09/26 11:19:27;;;;;;;2.90;1.63;;;25.20;70.30;;;;;;6136804;22;92384;-78
2023/09/26 11:21:56;;;;;;;5.85;1.67;;;25.30;70.80;;;;;;6137771;22;92823;-80
2023/09/26 11:24:23;;;;;;;2.95;1.90;;;25.40;68.50;;;;;;6136642;22;93733;-81
2023/09/26 11:26:55;;;;;;;3.17;1.73;;;25.40;67.20;;;;;;6138823;22;92755;-78
2023/09/26 11:29:21;;;;;;;3.60;1.70;;;25.50;68.40;;;;;;6135881;22;93164;-79
2023/09/26 11:31:49;;;;;;;4.68;2.20;;;25.60;67.80;;;;;;6138646;22;92736;-79
2023/09/26 11:34:19;;;;;;;6.80;1.83;;;25.70;65.50;;;;;;6137128;22;92596;-79
2023/09/26 11:36:47;;;;;;;4.22;1.50;;;25.70;68.20;;;;;;6139026;22;94454;-76
2023/09/26 11:39:24;;;;;;;18.98;3.45;;;25.70;66.50;;;;;;6139124;22;92866;-81
2023/09/26 11:42:17;;;;;;;4.18;1.75;;;25.60;66.60;;;;;;6139270;22;91953;-78
2023/09/26 11:44:54;;;;;;;2.17;1.10;;;25.50;64.60;;;;;;6139956;22;92775;-79
2023/09/26 11:47:24;;;;;;;8.43;2.40;;;25.40;65.90;;;;;;6140341;22;96802;-79
2023/09/26 11:49:51;;;;;;;9.38;2.22;;;25.50;66.70;;;;;;6141040;22;93630;-81
2023/09/26 11:52:18;;;;;;;4.80;1.38;;;25.50;65.30;;;;;;6140635;22;92284;-75
2023/09/26 11:54:46;;;;;;;2.38;1.10;;;25.60;64.30;;;;;;6142099;22;92578;-77
2023/09/26 11:57:12;;;;;;;1.70;0.90;;;25.70;65.10;;;;;;6141538;22;93071;-77
2023/09/26 11:59:39;;;;;;;2.40;1.48;;;25.80;66.70;;;;;;6141523;22;96160;-84
2023/09/26 12:02:05;;;;;;;2.35;1.25;;;25.90;64.90;;;;;;6144196;22;92476;-79
2023/09/26 12:04:33;;;;;;;5.05;1.40;;;26.00;68.40;;;;;;6143517;22;92792;-85
2023/09/26 12:06:59;;;;;;;1.67;1.30;;;26.00;64.00;;;;;;6142527;22;96212;-79
2023/09/26 12:09:28;;;;;;;8.82;1.58;;;26.00;64.20;;;;;;6143537;22;92450;-85
2023/09/26 12:11:53;;;;;;;2.45;1.00;;;26.00;63.70;;;;;;6144282;22;92465;-82
2023/09/26 12:14:19;;;;;;;2.80;1.48;;;25.90;63.70;;;;;;6140500;22;93586;-83
2023/09/26 12:16:50;;;;;;;1.55;1.10;;;25.90;64.90;;;;;;6140638;22;93119;-78
2023/09/26 12:19:17;;;;;;;3.03;1.30;;;26.10;66.40;;;;;;6140069;22;93233;-78
2023/09/26 12:21:42;;;;;;;2.85;1.23;;;26.40;66.90;;;;;;6140887;22;92649;-79
2023/09/26 12:24:08;;;;;;;1.80;1.13;;;26.50;64.30;;;;;;6138961;22;92560;-78
2023/09/26 12:26:37;;;;;;;4.20;1.20;;;26.60;63.80;;;;;;6138195;22;96059;-80
2023/09/26 12:29:04;;;;;;;2.13;1.17;;;26.70;64.00;;;;;;6138646;22;96015;-82
2023/09/26 12:31:30;;;;;;;3.17;1.30;;;26.60;60.90;;;;;;6139862;22;92213;-78
2023/09/26 12:33:56;;;;;;;3.05;1.73;;;26.60;62.30;;;;;;6139812;22;92831;-79
2023/09/26 12:36:21;;;;;;;3.20;1.23;;;26.70;61.10;;;;;;6139149;22;92663;-79
2023/09/26 12:38:47;;;;;;;1.90;1.20;;;26.70;63.50;;;;;;6161833;22;95069;-82
2023/09/26 12:41:13;;;;;;;3.42;1.30;;;26.80;62.90;;;;;;6140657;22;92379;-79
2023/09/26 12:43:40;;;;;;;4.20;1.30;;;26.80;62.10;;;;;;6139565;22;92643;-79
2023/09/26 12:46:06;;;;;;;5.88;1.50;;;26.80;61.30;;;;;;6140066;22;93403;-79
2023/09/26 12:48:32;;;;;;;11.30;2.47;;;26.80;59.10;;;;;;6141298;22;92681;-81
2023/09/26 12:50:58;;;;;;;8.65;1.95;;;26.70;60.00;;;;;;6139593;22;92395;-80
2023/09/26 12:53:23;;;;;;;11.18;2.17;;;26.70;59.10;;;;;;6177868;22;92878;-78
2023/09/26 12:55:51;;;;;;;10.80;2.13;;;26.90;60.00;;;;;;6169931;22;95148;-84
2023/09/26 12:58:17;;;;;;;4.90;1.38;;;27.10;61.10;;;;;;6173939;22;92531;-78
2023/09/26 13:00:42;;;;;;;3.00;1.10;;;27.30;58.50;;;;;;6173723;22;92801;-81
2023/09/26 13:03:08;;;;;;;2.75;1.45;;;27.50;56.30;;;;;;6173291;22;93497;-79
2023/09/26 13:05:34;;;;;;;13.77;2.30;;;27.60;56.80;;;;;;6172824;22;92598;-81
2023/09/26 13:08:00;;;;;;;3.95;1.38;;;27.70;56.20;;;;;;6172984;22;93327;-76
2023/09/26 13:10:26;;;;;;;4.38;1.20;;;27.80;57.80;;;;;;6177192;22;93142;-84
2023/09/26 13:12:51;;;;;;;2.90;1.02;;;27.90;58.90;;;;;;6175654;22;92687;-77
2023/09/26 13:15:17;;;;;;;2.58;1.30;;;28.10;59.20;;;;;;6176646;22;93081;-77
2023/09/26 13:17:44;;;;;;;2.17;1.08;;;28.20;56.90;;;;;;6176984;22;92517;-77
2023/09/26 13:20:11;;;;;;;2.92;1.35;;;28.30;57.30;;;;;;6178049;22;91705;-80
2023/09/26 13:22:37;;;;;;;8.75;2.30;;;28.50;55.90;;;;;;6179561;22;92135;-78
2023/09/26 13:25:05;;;;;;;7.78;1.88;;;28.70;55.00;;;;;;6178881;22;96340;-81
2023/09/26 13:27:31;;;;;;;10.35;2.17;;;28.70;54.00;;;;;;6179265;22;93754;-80
2023/09/26 13:29:56;;;;;;;4.95;1.38;;;28.80;55.20;;;;;;6181082;22;92588;-79
2023/09/26 13:32:24;;;;;;;17.75;2.60;;;28.80;53.50;;;;;;6204419;22;92578;-77
2023/09/26 13:34:49;;;;;;;8.32;2.25;;;28.70;55.10;;;;;;6176756;22;92813;-78
2023/09/26 13:37:15;;;;;;;14.23;3.38;;;28.60;54.40;;;;;;6176582;22;95314;-79
2023/09/26 13:39:41;;;;;;;14.20;2.55;;;28.50;54.50;;;;;;6179325;22;92712;-79
2023/09/26 13:42:07;;;;;;;3.35;1.50;;;28.50;54.60;;;;;;6177480;22;94612;-79
2023/09/26 13:44:33;;;;;;;2.13;1.25;;;28.50;54.20;;;;;;6173510;22;95728;-79
2023/09/26 13:46:59;;;;;;;5.10;1.55;;;28.50;55.50;;;;;;6157792;22;93775;-78
2023/09/26 13:49:25;;;;;;;11.82;2.70;;;28.70;56.60;;;;;;6179007;22;92395;-80
2023/09/26 13:51:53;;;;;;;3.92;1.30;;;28.70;55.50;;;;;;6180408;22;92949;-79
2023/09/26 13:54:18;;;;;;;3.88;1.25;;;28.50;55.50;;;;;;6173503;22;92906;-77
2023/09/26 13:56:53;;;;;;;3.90;1.50;;;28.60;54.90;;;;;;6159167;22;93158;-76
2023/09/26 13:59:19;;;;;;;7.57;1.60;;;28.60;56.30;;;;;;6170139;22;92756;-80